Airfield :
LOGIN :

Register | Disclaimer

   EN    FR    IT 

 










Legend :    VFR   Marginal VFR   IFR   Intensive IFR   Very Intensive IFR
Visi :
Ceiling :
>= 8 km
>= 3000ft
5 to 8 km
1000 to 3000 ft
1500m to 5 km
500 to 1000 ft
800 to 1500m
200 to 500 ft
< 800m
< 200 ft
Symbols :   Thunderstorms  Fog  Heavy snow  Heavy precipitations  Wind > 20 kt
SIGMETs :     Misc.  Thunderstorms  Icing  Turbulence  Mountain Waves  Volcanic Ashes






- Airport Elevation : 978 ft
- IATA code : LNZ


LOWL - Linz

CURRENT METAR :
  • 081450Z 27010KT 240V300 9999 FEW050 07/M03 Q1018 NOSIG

EXPIRED METARs :
  • 081420Z 29011KT 250V310 9999 FEW050 07/M04 Q1019 NOSIG
  • 081350Z 30011KT 9999 FEW050 07/M04 Q1019 NOSIG
  • 081320Z 29011KT 270V330 9999 FEW050 07/M04 Q1019 NOSIG
  • 081250Z 28011KT 250V310 9999 FEW045 07/M05 Q1019 NOSIG

TAF TAF LOWL
Valid from the 08 at 12:00 until the 09 at 12:00 UTC


081115Z 0812/0912 27004KT 9999 FEW040 TX08/0814Z TNM02/0906Z
BECMG 0817/0819 09005KT



MET'MAP, your aeronautical weather chart ! - Copyright ORBIFLY December 2007 - Disclaimer

ORBIFLY MET'MAP TEAM :

Programming & Development : Alexandra Zaïnal
Concept & original design : Baudouin d'Aumeries
Assistance for programming : Marc-Olivier Méhu
Technical & hardware support : Manuel Goepfert

Contact : metmap@orbifly.com




SOURCES & CREDITS :

   NOAA